Time;durP1;ratioP1;P1;durP2;ratioP2;P2;SDS_P1;SDS_P2;PMS_P1;PMS_P2;Temp;Humidity;BMP_temperature;BMP_pressure;BME280_temperature;BME280_humidity;BME280_pressure;Samples;Min_cycle;Max_cycle;Signal;HPM_P1;HPM_P2
2022/10/05 00:00:56;;;;;;;21.55;11.50;;;9.20;99.90;;;;;;4995074;28;20049;-76
2022/10/05 00:03:26;;;;;;;24.73;11.75;;;9.20;99.90;;;;;;4990490;28;20054;-76
2022/10/05 00:05:52;;;;;;;17.20;10.82;;;9.20;99.90;;;;;;4992869;28;20038;-76
2022/10/05 00:08:24;;;;;;;19.45;11.80;;;9.20;99.90;;;;;;4994499;28;20045;-76
2022/10/05 00:10:50;;;;;;;18.88;10.95;;;9.10;99.90;;;;;;4994685;28;20034;-76
2022/10/05 00:13:25;;;;;;;18.52;10.73;;;9.00;99.90;;;;;;4993140;28;20774;-76
2022/10/05 00:16:10;;;;;;;18.25;9.32;;;9.00;99.90;;;;;;4994691;28;20034;-76
2022/10/05 00:18:38;;;;;;;17.58;10.77;;;8.90;99.90;;;;;;4994032;28;20034;-76
2022/10/05 00:21:25;;;;;;;18.02;11.13;;;8.80;99.90;;;;;;4994187;28;20042;-75
2022/10/05 00:23:55;;;;;;;17.33;9.50;;;8.70;99.90;;;;;;4992603;28;20050;-75
2022/10/05 00:26:26;;;;;;;20.05;10.07;;;8.60;99.90;;;;;;4993785;28;20038;-79
2022/10/05 00:28:53;;;;;;;16.38;10.15;;;8.60;99.90;;;;;;4994413;28;20041;-75
2022/10/05 00:31:25;;;;;;;23.17;9.13;;;8.50;99.90;;;;;;4992430;28;20054;-76
2022/10/05 00:33:53;;;;;;;17.25;9.80;;;8.40;99.90;;;;;;4992945;28;20045;-75
2022/10/05 00:36:20;;;;;;;15.70;8.30;;;8.40;99.90;;;;;;4994304;28;20030;-75
2022/10/05 00:38:46;;;;;;;18.52;10.45;;;8.30;99.90;;;;;;4992188;28;20042;-74
2022/10/05 00:42:03;;;;;;;16.60;10.13;;;8.30;99.90;;;;;;4992434;28;20042;-76
2022/10/05 00:44:49;;;;;;;18.35;9.77;;;8.20;99.90;;;;;;4991926;28;20383;-76
2022/10/05 00:47:54;;;;;;;15.30;8.82;;;8.20;99.90;;;;;;4992726;28;20047;-75
2022/10/05 00:50:46;;;;;;;14.68;8.73;;;8.20;99.90;;;;;;4933605;29;20059;-76
2022/10/05 00:53:50;;;;;;;13.65;8.85;;;8.20;99.90;;;;;;4970645;28;20050;-76
2022/10/05 00:56:33;;;;;;;17.38;10.27;;;8.20;99.90;;;;;;4989334;28;20395;-75
2022/10/05 00:59:31;;;;;;;13.63;9.07;;;8.10;99.90;;;;;;4993869;28;20034;-74
2022/10/05 01:02:10;;;;;;;15.93;10.20;;;8.00;99.90;;;;;;4990132;28;20058;-76
2022/10/05 01:04:36;;;;;;;17.13;9.73;;;8.00;99.90;;;;;;4989972;28;20043;-75
2022/10/05 01:07:12;;;;;;;15.60;9.70;;;7.90;99.90;;;;;;4993700;28;20037;-75
2022/10/05 01:09:46;;;;;;;16.98;9.85;;;7.90;99.90;;;;;;4993106;28;20069;-76
2022/10/05 01:12:20;;;;;;;17.92;9.98;;;7.90;99.90;;;;;;4992177;28;20126;-75
2022/10/05 01:15:00;;;;;;;19.60;10.77;;;8.00;99.90;;;;;;4991394;28;20030;-74
2022/10/05 01:17:43;;;;;;;21.83;12.10;;;8.10;99.90;;;;;;4991241;28;20042;-76
2022/10/05 01:20:15;;;;;;;17.20;9.85;;;8.10;99.90;;;;;;4993302;28;20384;-76
2022/10/05 01:23:19;;;;;;;20.05;10.75;;;8.20;99.90;;;;;;4992478;28;20030;-76
2022/10/05 01:25:52;;;;;;;18.30;10.52;;;8.30;99.90;;;;;;4992672;28;20049;-75
2022/10/05 01:28:28;;;;;;;19.98;10.40;;;8.10;99.90;;;;;;4975248;28;20377;-74
2022/10/05 01:31:08;;;;;;;18.77;10.40;;;8.00;99.90;;;;;;4991415;28;20046;-75
2022/10/05 01:33:45;;;;;;;17.10;9.98;;;7.90;99.90;;;;;;4989783;28;20384;-76
2022/10/05 01:36:25;;;;;;;17.67;9.18;;;7.90;99.90;;;;;;4995540;28;20046;-76
2022/10/05 01:38:57;;;;;;;23.27;10.30;;;7.90;99.90;;;;;;4985728;28;20046;-75
2022/10/05 01:41:54;;;;;;;18.33;9.80;;;7.90;99.90;;;;;;4991355;28;20054;-75
2022/10/05 01:44:44;;;;;;;15.80;8.68;;;7.90;99.90;;;;;;4974310;28;20045;-75
2022/10/05 01:47:48;;;;;;;18.35;9.60;;;7.90;99.90;;;;;;4990680;28;20042;-74
2022/10/05 01:50:44;;;;;;;16.60;10.10;;;7.80;99.90;;;;;;4975630;28;20054;-74
2022/10/05 01:53:27;;;;;;;16.02;9.45;;;7.80;99.90;;;;;;4978133;28;20069;-76
2022/10/05 01:56:51;;;;;;;19.45;9.95;;;7.80;99.90;;;;;;4993091;28;20403;-76
2022/10/05 01:59:45;;;;;;;16.95;10.68;;;7.70;99.90;;;;;;4934404;28;20045;-75
2022/10/05 02:02:17;;;;;;;15.30;9.32;;;7.70;99.90;;;;;;4991173;28;20050;-76
2022/10/05 02:04:54;;;;;;;20.50;10.30;;;7.70;99.90;;;;;;4990715;28;20026;-74
2022/10/05 02:07:39;;;;;;;19.60;10.23;;;7.70;99.90;;;;;;4990921;28;20046;-74
2022/10/05 02:10:15;;;;;;;23.27;11.40;;;7.80;99.90;;;;;;4992572;28;20061;-75
2022/10/05 02:12:43;;;;;;;20.92;10.30;;;7.80;99.90;;;;;;4990147;28;20046;-75
2022/10/05 02:15:14;;;;;;;18.60;10.02;;;7.70;99.90;;;;;;4984266;28;20468;-75
2022/10/05 02:17:44;;;;;;;;;;;7.70;99.90;;;;;;4992238;28;20476;-76
2022/10/05 02:20:19;;;;;;;16.52;8.73;;;7.70;99.90;;;;;;4992379;28;20271;-75
2022/10/05 02:22:51;;;;;;;20.08;9.93;;;7.70;99.90;;;;;;4989539;28;20047;-75
2022/10/05 02:25:22;;;;;;;15.38;9.80;;;7.70;99.90;;;;;;5006759;28;20049;-74
2022/10/05 02:27:57;;;;;;;15.02;10.15;;;7.60;99.90;;;;;;5006957;28;20037;-76
2022/10/05 02:30:23;;;;;;;16.13;9.38;;;7.60;99.90;;;;;;5018203;28;20034;-75
2022/10/05 02:33:00;;;;;;;19.15;9.43;;;7.60;99.90;;;;;;4999631;28;20057;-76
2022/10/05 02:35:29;;;;;;;19.83;10.35;;;7.60;99.90;;;;;;4995214;28;20038;-76
2022/10/05 02:38:16;;;;;;;16.77;10.02;;;7.60;99.90;;;;;;4996479;28;20357;-75
2022/10/05 02:40:51;;;;;;;23.23;12.13;;;7.50;99.90;;;;;;4993868;28;20046;-77
2022/10/05 02:43:22;;;;;;;18.30;11.52;;;7.50;99.90;;;;;;4994013;28;20058;-75
2022/10/05 02:46:04;;;;;;;21.23;11.85;;;7.50;99.90;;;;;;4994379;28;20034;-77
2022/10/05 02:49:01;;;;;;;23.42;13.60;;;7.60;99.90;;;;;;4994033;28;20069;-77
2022/10/05 02:52:12;;;;;;;25.20;14.80;;;7.90;99.90;;;;;;4994503;28;20042;-78
2022/10/05 02:54:57;;;;;;;25.38;15.25;;;8.20;99.90;;;;;;4898395;29;20048;-74
2022/10/05 02:57:41;;;;;;;27.38;14.73;;;8.60;99.90;;;;;;4911430;29;20040;-74
2022/10/05 03:00:17;;;;;;;31.17;15.70;;;8.80;99.90;;;;;;4892891;29;20044;-76
2022/10/05 03:03:03;;;;;;;24.33;14.90;;;8.80;99.90;;;;;;4914454;29;20494;-76
2022/10/05 03:05:35;;;;;;;25.27;14.45;;;8.80;99.90;;;;;;4915788;29;20055;-77
2022/10/05 03:08:08;;;;;;;24.38;15.45;;;8.70;99.90;;;;;;4897397;29;20044;-75
2022/10/05 03:10:56;;;;;;;22.52;13.82;;;8.70;99.90;;;;;;4894408;29;20509;-76
2022/10/05 03:13:22;;;;;;;28.85;14.93;;;8.60;99.90;;;;;;4886251;29;20056;-76
2022/10/05 03:16:16;;;;;;;22.60;13.38;;;8.50;99.90;;;;;;4893436;29;20051;-74
2022/10/05 03:19:03;;;;;;;25.92;12.77;;;8.50;99.90;;;;;;4896223;29;20048;-76
2022/10/05 03:21:42;;;;;;;26.33;14.57;;;8.60;99.90;;;;;;4911369;29;20394;-78
2022/10/05 03:24:46;;;;;;;29.33;14.73;;;8.60;99.90;;;;;;4886581;29;20040;-76
2022/10/05 03:27:43;;;;;;;24.33;14.85;;;8.80;99.90;;;;;;4977616;28;20046;-75
2022/10/05 03:30:17;;;;;;;25.73;14.88;;;8.80;99.90;;;;;;4993399;28;20042;-76
2022/10/05 03:32:52;;;;;;;28.73;15.73;;;8.90;99.90;;;;;;4991875;28;20058;-75
2022/10/05 03:35:25;;;;;;;26.67;15.32;;;9.00;99.90;;;;;;4996915;28;20061;-74
2022/10/05 03:38:13;;;;;;;30.38;16.13;;;9.00;99.90;;;;;;4989313;28;20380;-76
2022/10/05 03:40:52;;;;;;;27.52;15.02;;;8.90;99.90;;;;;;4994064;28;20380;-76
2022/10/05 03:43:53;;;;;;;30.35;15.55;;;8.90;99.90;;;;;;4992346;28;20053;-76
2022/10/05 03:47:05;;;;;;;25.38;14.88;;;8.90;99.90;;;;;;4993222;28;20046;-76
2022/10/05 03:49:47;;;;;;;31.42;15.63;;;9.00;99.90;;;;;;4994355;28;20050;-76
2022/10/05 03:52:51;;;;;;;29.15;15.30;;;9.00;99.90;;;;;;4992345;28;20043;-76
2022/10/05 03:55:58;;;;;;;31.13;16.52;;;9.00;99.90;;;;;;4947023;28;20050;-75
2022/10/05 03:58:31;;;;;;;30.02;15.73;;;9.10;99.90;;;;;;4983317;28;20475;-77
2022/10/05 04:01:10;;;;;;;28.75;16.52;;;9.10;99.90;;;;;;4992826;28;20038;-75
2022/10/05 04:03:58;;;;;;;27.17;15.73;;;9.10;99.90;;;;;;4981824;28;20054;-75
2022/10/05 04:06:34;;;;;;;29.27;15.80;;;9.00;99.90;;;;;;4993430;28;20046;-75
2022/10/05 04:09:12;;;;;;;28.75;16.15;;;9.10;99.90;;;;;;4983127;28;20424;-75
2022/10/05 04:12:04;;;;;;;31.85;17.80;;;9.10;99.90;;;;;;4992668;28;20050;-73
2022/10/05 04:14:35;;;;;;;30.95;17.65;;;9.10;99.90;;;;;;4991661;28;20050;-75
2022/10/05 04:17:12;;;;;;;30.55;16.75;;;9.00;99.90;;;;;;4993180;28;20042;-72
2022/10/05 04:20:01;;;;;;;31.42;16.75;;;9.00;99.90;;;;;;4992725;28;20058;-73
2022/10/05 04:22:39;;;;;;;35.40;17.48;;;8.90;99.90;;;;;;4991675;28;20057;-74
2022/10/05 04:25:21;;;;;;;31.20;17.50;;;9.10;99.90;;;;;;4988651;28;20499;-74
2022/10/05 04:28:03;;;;;;;33.65;17.35;;;9.10;99.90;;;;;;4993101;28;20034;-74
2022/10/05 04:30:37;;;;;;;34.00;16.27;;;9.00;99.90;;;;;;4992492;28;20046;-77
2022/10/05 04:33:09;;;;;;;28.90;16.02;;;9.00;99.90;;;;;;4992707;28;20054;-73
2022/10/05 04:36:11;;;;;;;30.52;16.75;;;9.10;99.90;;;;;;4992458;28;20050;-73
2022/10/05 04:38:55;;;;;;;33.80;17.17;;;9.00;99.90;;;;;;4993929;28;20031;-72
2022/10/05 04:41:41;;;;;;;28.65;16.17;;;9.00;99.90;;;;;;4992637;28;20599;-72
2022/10/05 04:44:27;;;;;;;30.08;16.27;;;9.00;99.90;;;;;;4991506;28;20038;-73
2022/10/05 04:47:16;;;;;;;25.73;14.70;;;8.90;99.90;;;;;;4991874;28;20046;-73
2022/10/05 04:50:13;;;;;;;32.10;15.30;;;8.90;99.90;;;;;;4993468;28;20046;-73
2022/10/05 04:53:03;;;;;;;30.30;15.98;;;8.90;99.90;;;;;;4989578;28;20053;-73
2022/10/05 04:55:43;;;;;;;26.10;14.38;;;8.70;99.90;;;;;;4992368;28;20050;-72
2022/10/05 04:58:31;;;;;;;28.15;15.52;;;8.70;99.90;;;;;;4993984;28;20483;-73
2022/10/05 05:01:15;;;;;;;33.40;16.40;;;8.70;99.90;;;;;;4998949;28;20396;-72
2022/10/05 05:04:07;;;;;;;27.35;15.32;;;8.70;99.90;;;;;;4986233;28;20086;-71
2022/10/05 05:06:58;;;;;;;30.45;16.25;;;8.80;99.90;;;;;;4991835;28;20392;-73
2022/10/05 05:09:30;;;;;;;30.33;16.50;;;8.80;99.90;;;;;;4992416;28;20396;-73
2022/10/05 05:12:08;;;;;;;36.33;17.55;;;8.70;99.90;;;;;;4992226;28;20037;-74
2022/10/05 05:15:13;;;;;;;33.17;17.52;;;8.80;99.90;;;;;;4990029;28;20055;-73
2022/10/05 05:17:58;;;;;;;33.97;18.73;;;8.80;99.90;;;;;;4991078;28;20042;-74
2022/10/05 05:20:50;;;;;;;32.50;17.45;;;8.70;99.90;;;;;;4993568;28;20035;-74
2022/10/05 05:23:49;;;;;;;36.80;18.77;;;8.60;99.90;;;;;;4990122;28;20046;-74
2022/10/05 05:26:28;;;;;;;43.88;20.45;;;8.70;99.90;;;;;;4991808;28;20034;-73
2022/10/05 05:29:16;;;;;;;37.58;19.85;;;8.70;99.90;;;;;;4990988;28;20369;-73
2022/10/05 05:32:14;;;;;;;33.30;19.23;;;8.60;99.90;;;;;;4991130;28;20046;-73
2022/10/05 05:35:16;;;;;;;32.15;18.50;;;8.60;99.90;;;;;;4989887;28;20057;-73
2022/10/05 05:38:02;;;;;;;32.95;17.10;;;8.50;99.90;;;;;;4990866;28;20042;-74
2022/10/05 05:40:42;;;;;;;40.10;19.67;;;8.40;99.90;;;;;;4991878;28;20391;-73
2022/10/05 05:43:11;;;;;;;31.25;18.17;;;8.50;99.90;;;;;;4990092;28;20091;-72
2022/10/05 05:45:50;;;;;;;36.85;20.10;;;8.60;99.90;;;;;;4992353;28;20030;-73
2022/10/05 05:48:42;;;;;;;36.50;19.77;;;8.60;99.90;;;;;;4990433;28;20057;-74
2022/10/05 05:51:34;;;;;;;39.05;18.15;;;8.60;99.90;;;;;;4990905;28;20471;-74
2022/10/05 05:54:19;;;;;;;25.17;13.88;;;8.50;99.90;;;;;;4991395;28;20042;-74
2022/10/05 05:57:26;;;;;;;33.30;18.05;;;8.50;99.90;;;;;;4991590;28;20043;-74
2022/10/05 06:00:05;;;;;;;34.97;18.13;;;8.50;99.90;;;;;;4989613;28;20144;-73
2022/10/05 06:02:42;;;;;;;34.13;19.70;;;8.40;99.90;;;;;;4993057;28;20479;-73
2022/10/05 06:05:24;;;;;;;31.80;18.60;;;8.30;99.90;;;;;;4978340;28;20073;-74
2022/10/05 06:07:53;;;;;;;28.77;16.42;;;8.30;99.90;;;;;;4989787;28;20414;-74
2022/10/05 06:10:35;;;;;;;29.40;14.90;;;8.20;99.90;;;;;;4985986;28;20051;-74
2022/10/05 06:13:33;;;;;;;28.85;17.42;;;8.20;99.90;;;;;;4985192;28;20050;-73
2022/10/05 06:16:17;;;;;;;26.38;16.02;;;8.20;99.90;;;;;;4990920;28;20065;-72
2022/10/05 06:18:50;;;;;;;28.90;15.60;;;8.20;99.90;;;;;;4992056;28;20038;-73
2022/10/05 06:21:36;;;;;;;30.25;15.57;;;8.10;99.90;;;;;;4991215;28;20049;-74
2022/10/05 06:24:09;;;;;;;31.33;16.75;;;8.20;99.90;;;;;;4988328;28;20046;-73
2022/10/05 06:26:38;;;;;;;37.70;18.48;;;8.30;99.90;;;;;;4988798;28;20046;-73
2022/10/05 06:29:11;;;;;;;35.45;18.85;;;8.50;99.90;;;;;;4991260;28;20039;-73
2022/10/05 06:31:55;;;;;;;35.97;20.80;;;8.60;99.90;;;;;;4992023;28;20046;-73
2022/10/05 06:34:37;;;;;;;45.38;23.83;;;8.70;99.90;;;;;;4990959;28;20053;-74
2022/10/05 06:37:31;;;;;;;58.80;25.85;;;9.00;99.90;;;;;;4989902;28;20046;-72
2022/10/05 06:40:08;;;;;;;53.15;26.25;;;9.30;99.90;;;;;;4994563;28;20030;-74
2022/10/05 06:43:04;;;;;;;55.17;28.20;;;9.50;99.90;;;;;;5005092;28;20046;-77
2022/10/05 06:46:10;;;;;;;54.17;27.55;;;9.70;99.90;;;;;;4998406;28;20042;-73
2022/10/05 06:49:36;;;;;;;67.38;28.00;;;9.80;99.90;;;;;;4995786;28;20065;-74
2022/10/05 06:52:24;;;;;;;59.40;27.45;;;9.80;99.90;;;;;;4992644;28;20472;-74
2022/10/05 06:55:21;;;;;;;56.30;27.45;;;9.90;99.90;;;;;;4990841;28;20053;-74
2022/10/05 06:57:50;;;;;;;57.45;28.60;;;9.90;99.90;;;;;;4990479;28;20420;-74
2022/10/05 07:00:30;;;;;;;65.13;29.80;;;10.00;99.90;;;;;;4992372;28;20034;-73
2022/10/05 07:03:08;;;;;;;49.50;26.90;;;10.00;99.90;;;;;;4991323;28;20054;-74
2022/10/05 07:05:58;;;;;;;60.03;25.50;;;10.00;99.90;;;;;;4988029;28;20046;-77
2022/10/05 07:08:49;;;;;;;54.70;25.53;;;10.10;99.90;;;;;;4985948;28;20042;-73
2022/10/05 07:11:38;;;;;;;48.00;24.35;;;10.20;99.90;;;;;;4990780;28;20499;-73
2022/10/05 07:14:22;;;;;;;50.50;23.27;;;10.10;99.90;;;;;;4991581;28;20050;-74
2022/10/05 07:16:48;;;;;;;54.35;26.35;;;10.00;99.90;;;;;;4990997;28;20392;-74
2022/10/05 07:19:39;;;;;;;61.42;27.48;;;10.00;99.90;;;;;;4996115;28;20030;-74
2022/10/05 07:22:32;;;;;;;62.70;29.73;;;10.00;99.90;;;;;;4993225;28;20042;-73
2022/10/05 07:25:02;;;;;;;66.38;31.63;;;10.10;99.90;;;;;;4991074;28;20650;-73
2022/10/05 07:27:35;;;;;;;61.40;30.67;;;10.10;99.90;;;;;;4987813;28;20042;-75
2022/10/05 07:30:03;;;;;;;61.42;32.10;;;10.20;99.90;;;;;;4998484;28;20035;-74
2022/10/05 07:32:48;;;;;;;66.15;31.02;;;10.30;99.90;;;;;;4994053;28;20484;-74
2022/10/05 07:38:38;;;;;;;58.40;29.55;;;10.40;99.90;;;;;;4995191;28;20034;-73
2022/10/05 07:41:21;;;;;;;57.55;30.23;;;10.50;99.90;;;;;;4993655;28;20506;-74
2022/10/05 07:44:11;;;;;;;55.40;27.92;;;10.60;99.90;;;;;;4993364;28;20050;-73
2022/10/05 07:47:19;;;;;;;55.28;29.30;;;10.70;99.90;;;;;;4990848;28;20395;-75
2022/10/05 07:49:51;;;;;;;43.33;24.90;;;11.20;99.90;;;;;;4915306;29;20056;-74
2022/10/05 07:52:23;;;;;;;29.17;18.85;;;11.70;99.90;;;;;;4984434;28;20053;-73
2022/10/05 07:54:59;;;;;;;26.50;17.77;;;12.10;99.90;;;;;;4991391;28;20479;-74
2022/10/05 07:57:37;;;;;;;24.75;16.10;;;12.60;99.90;;;;;;4993989;28;20034;-74
2022/10/05 08:00:16;;;;;;;22.17;12.65;;;12.80;99.90;;;;;;4993279;28;20049;-75
2022/10/05 08:03:12;;;;;;;13.38;10.25;;;13.00;99.90;;;;;;4991972;28;20420;-73
2022/10/05 08:05:41;;;;;;;12.68;8.43;;;13.10;99.90;;;;;;4987943;28;20046;-74
2022/10/05 08:08:17;;;;;;;11.25;8.43;;;13.30;99.90;;;;;;4994525;28;20037;-73
2022/10/05 08:10:54;;;;;;;11.65;8.73;;;13.70;99.90;;;;;;4994412;28;20360;-74
2022/10/05 08:13:24;;;;;;;12.48;7.78;;;13.90;99.90;;;;;;4993757;28;20484;-74
2022/10/05 08:15:52;;;;;;;;;;;14.20;99.90;;;;;;4988406;28;20462;-74
2022/10/05 08:18:35;;;;;;;9.88;7.07;;;14.40;99.90;;;;;;4985776;28;19941;-75
2022/10/05 08:21:05;;;;;;;9.77;6.75;;;14.60;99.90;;;;;;4993868;28;20110;-75
2022/10/05 08:23:49;;;;;;;10.73;6.80;;;14.90;99.90;;;;;;4993057;28;20034;-74
2022/10/05 08:26:40;;;;;;;10.85;7.07;;;15.40;99.90;;;;;;4994345;28;20146;-75
2022/10/05 08:29:32;;;;;;;9.73;6.13;;;15.90;99.90;;;;;;4993016;28;20045;-73
2022/10/05 08:32:13;;;;;;;8.77;5.95;;;16.40;99.90;;;;;;4993730;28;20042;-73
2022/10/05 08:34:51;;;;;;;;;;;17.00;99.90;;;;;;4994062;28;20034;-75
2022/10/05 08:37:20;;;;;;;8.48;5.50;;;17.30;99.90;;;;;;4975453;28;20263;-73
2022/10/05 08:39:53;;;;;;;7.78;5.95;;;17.60;99.90;;;;;;4991755;28;20050;-73
2022/10/05 08:42:19;;;;;;;6.35;4.82;;;17.80;99.90;;;;;;4993820;28;20041;-74
2022/10/05 08:45:17;;;;;;;8.82;5.25;;;17.80;99.90;;;;;;4992313;28;20472;-74
2022/10/05 08:47:52;;;;;;;8.18;5.88;;;17.90;99.90;;;;;;5001221;28;20049;-74
2022/10/05 08:50:49;;;;;;;6.45;4.82;;;17.70;99.90;;;;;;4981431;28;20046;-74
2022/10/05 08:53:49;;;;;;;6.53;4.50;;;18.50;99.90;;;;;;4992689;28;20046;-76
2022/10/05 08:56:34;;;;;;;6.97;4.35;;;18.60;99.90;;;;;;4967588;28;20041;-76
2022/10/05 08:59:06;;;;;;;7.18;4.82;;;18.80;99.90;;;;;;4984593;28;20387;-72
2022/10/05 09:02:01;;;;;;;8.57;4.53;;;18.80;99.90;;;;;;4993066;28;20047;-73
2022/10/05 09:04:42;;;;;;;6.47;3.95;;;18.80;99.90;;;;;;4993624;28;20061;-74
2022/10/05 09:07:11;;;;;;;11.98;4.93;;;18.80;99.90;;;;;;4990384;28;20054;-75
2022/10/05 09:10:08;;;;;;;9.13;4.75;;;18.90;99.90;;;;;;4993393;28;20038;-73
2022/10/05 09:12:56;;;;;;;7.68;4.78;;;18.90;99.90;;;;;;4993102;28;20046;-74
2022/10/05 09:15:44;;;;;;;6.05;3.97;;;18.80;99.90;;;;;;4993429;28;20053;-74
2022/10/05 09:18:48;;;;;;;5.60;4.45;;;18.80;99.90;;;;;;4991973;28;20377;-74
2022/10/05 09:21:31;;;;;;;6.22;4.15;;;18.60;99.90;;;;;;4932825;29;20445;-74
2022/10/05 09:24:37;;;;;;;7.72;4.03;;;18.50;99.90;;;;;;4987371;28;20057;-74
2022/10/05 09:27:16;;;;;;;7.22;3.80;;;18.50;99.90;;;;;;4991252;28;20038;-73
2022/10/05 09:30:11;;;;;;;6.00;3.10;;;18.60;99.90;;;;;;4992620;28;20427;-73
2022/10/05 09:33:12;;;;;;;5.00;3.10;;;18.80;99.90;;;;;;4992930;28;20055;-73
2022/10/05 09:35:50;;;;;;;5.35;3.92;;;19.00;99.90;;;;;;4992937;28;20388;-73
2022/10/05 09:38:54;;;;;;;6.13;4.10;;;18.70;99.90;;;;;;4966859;28;20057;-75
2022/10/05 09:41:52;;;;;;;5.28;3.60;;;18.20;99.90;;;;;;4993135;28;20030;-74
2022/10/05 09:44:35;;;;;;;6.68;3.95;;;17.90;99.90;;;;;;4988223;28;20057;-74
2022/10/05 09:47:34;;;;;;;5.45;4.28;;;18.00;99.90;;;;;;5003338;28;20049;-73
2022/10/05 09:50:22;;;;;;;5.70;3.90;;;18.10;99.90;;;;;;4987183;28;20046;-74
2022/10/05 09:53:11;;;;;;;7.13;5.03;;;17.90;99.90;;;;;;4992347;28;20408;-74
2022/10/05 09:56:04;;;;;;;7.18;4.00;;;17.70;99.90;;;;;;4992838;28;20042;-73
2022/10/05 09:59:14;;;;;;;6.38;4.43;;;17.70;99.90;;;;;;4991541;28;20038;-73
2022/10/05 10:01:59;;;;;;;6.47;4.32;;;17.70;99.90;;;;;;4991920;28;20038;-76
2022/10/05 10:04:37;;;;;;;6.72;4.75;;;17.70;99.90;;;;;;4992469;28;20034;-73
2022/10/05 10:07:36;;;;;;;5.65;3.75;;;17.90;99.90;;;;;;4992238;28;20046;-73
2022/10/05 10:10:36;;;;;;;8.35;3.33;;;17.90;99.90;;;;;;4980378;28;20383;-74
2022/10/05 10:13:39;;;;;;;7.63;2.88;;;18.10;99.90;;;;;;4992058;28;20039;-74
2022/10/05 10:16:11;;;;;;;4.28;2.88;;;18.30;99.90;;;;;;4992567;28;20034;-73
2022/10/05 10:19:26;;;;;;;5.53;3.38;;;18.20;99.90;;;;;;4990976;28;20042;-74
2022/10/05 10:22:00;;;;;;;4.13;2.95;;;18.40;99.90;;;;;;4922560;28;20044;-73
2022/10/05 10:25:00;;;;;;;3.50;2.63;;;18.60;99.90;;;;;;4992848;28;20460;-74
2022/10/05 10:27:53;;;;;;;6.68;2.78;;;18.70;99.90;;;;;;4988914;28;20034;-74
2022/10/05 10:30:25;;;;;;;3.40;1.92;;;18.70;99.90;;;;;;4991370;28;20037;-72
2022/10/05 10:33:34;;;;;;;3.85;2.75;;;18.80;99.90;;;;;;4992010;28;20035;-74
2022/10/05 10:36:19;;;;;;;6.65;2.40;;;18.70;99.90;;;;;;4990073;28;20246;-74
2022/10/05 10:38:54;;;;;;;2.97;2.28;;;18.80;99.90;;;;;;4984223;28;20061;-74
2022/10/05 10:41:48;;;;;;;4.10;2.17;;;19.00;99.90;;;;;;4987514;28;20060;-73
2022/10/05 10:44:39;;;;;;;3.85;2.03;;;18.90;99.90;;;;;;4992506;28;20061;-75
2022/10/05 10:47:38;;;;;;;12.27;2.67;;;19.00;99.90;;;;;;4992210;28;20031;-73
2022/10/05 10:50:38;;;;;;;4.28;2.25;;;19.00;99.90;;;;;;4990831;28;20046;-74
2022/10/05 10:53:26;;;;;;;5.63;2.40;;;19.00;99.90;;;;;;4995799;28;20053;-73
2022/10/05 10:56:07;;;;;;;3.85;2.55;;;19.30;99.90;;;;;;5006758;28;20030;-74
2022/10/05 10:58:57;;;;;;;4.93;2.42;;;19.40;99.90;;;;;;5008171;28;20429;-75
2022/10/05 11:01:34;;;;;;;5.03;2.72;;;19.40;99.90;;;;;;4996384;28;20415;-73
2022/10/05 11:04:30;;;;;;;3.75;2.13;;;19.70;99.90;;;;;;4995517;28;20038;-75
2022/10/05 11:07:20;;;;;;;3.55;1.90;;;19.70;99.90;;;;;;4995163;28;20050;-74
2022/10/05 11:10:08;;;;;;;3.83;1.77;;;19.80;99.90;;;;;;4993917;28;20049;-75
2022/10/05 11:12:34;;;;;;;5.57;1.98;;;20.10;99.90;;;;;;4995790;28;20384;-74
2022/10/05 11:15:06;;;;;;;3.67;1.90;;;20.10;99.90;;;;;;4994733;28;20050;-73
2022/10/05 11:17:55;;;;;;;2.03;1.40;;;20.10;99.90;;;;;;4995599;28;20510;-75
2022/10/05 11:20:43;;;;;;;3.53;2.03;;;20.00;99.90;;;;;;4952392;28;20065;-75
2022/10/05 11:23:41;;;;;;;3.25;2.15;;;20.00;99.90;;;;;;4987274;28;20034;-75
2022/10/05 11:26:10;;;;;;;3.00;1.80;;;20.00;99.90;;;;;;4980732;28;20391;-76
2022/10/05 11:28:44;;;;;;;2.00;1.58;;;20.00;99.90;;;;;;4994578;28;20034;-74
2022/10/05 11:31:35;;;;;;;3.67;1.45;;;20.10;99.90;;;;;;4995864;28;20041;-74
2022/10/05 11:34:30;;;;;;;2.33;1.85;;;20.10;99.90;;;;;;4993490;28;20399;-75
2022/10/05 11:37:11;;;;;;;3.47;2.38;;;20.20;99.90;;;;;;4993053;28;20034;-74
2022/10/05 11:39:53;;;;;;;2.15;1.80;;;20.30;99.90;;;;;;4994248;28;20038;-74
2022/10/05 11:42:55;;;;;;;3.50;2.50;;;20.40;99.90;;;;;;4993830;28;20042;-75
2022/10/05 11:45:24;;;;;;;3.58;1.80;;;20.50;99.90;;;;;;4995072;28;20026;-74
2022/10/05 11:48:13;;;;;;;4.43;2.03;;;20.50;99.90;;;;;;4992837;28;20041;-75
2022/10/05 11:51:10;;;;;;;6.03;2.08;;;20.70;99.90;;;;;;4994847;28;20030;-73
2022/10/05 11:53:52;;;;;;;2.10;1.70;;;20.90;99.90;;;;;;4994737;28;20053;-75
2022/10/05 11:56:33;;;;;;;2.55;1.75;;;20.80;99.90;;;;;;4993780;28;20058;-75
2022/10/05 11:59:25;;;;;;;5.55;1.80;;;20.80;99.90;;;;;;4994021;28;20046;-73
2022/10/05 12:02:24;;;;;;;4.30;1.73;;;20.90;99.90;;;;;;4993519;28;20034;-74
2022/10/05 12:05:11;;;;;;;2.25;1.58;;;21.10;99.90;;;;;;4994350;28;20038;-73
2022/10/05 12:07:56;;;;;;;3.53;1.42;;;21.20;99.10;;;;;;4989158;28;20054;-73
2022/10/05 12:10:30;;;;;;;4.32;1.98;;;20.90;99.00;;;;;;4994796;28;20475;-73
2022/10/05 12:13:18;;;;;;;4.07;2.03;;;20.70;99.70;;;;;;4994090;28;20030;-74
2022/10/05 12:15:46;;;;;;;3.20;1.70;;;20.80;99.90;;;;;;4989089;28;20424;-75
2022/10/05 12:18:31;;;;;;;5.15;1.83;;;20.70;99.90;;;;;;4993551;28;20041;-74
2022/10/05 12:21:19;;;;;;;5.80;1.38;;;20.80;99.90;;;;;;4994239;28;20045;-74
2022/10/05 12:24:04;;;;;;;2.72;1.55;;;20.90;99.90;;;;;;4994107;28;20038;-80
2022/10/05 12:26:39;;;;;;;2.70;1.60;;;21.00;99.80;;;;;;4988231;28;20045;-74
2022/10/05 12:29:28;;;;;;;2.05;1.40;;;21.00;98.90;;;;;;4992223;28;20265;-74
2022/10/05 12:32:16;;;;;;;2.92;1.60;;;21.10;98.60;;;;;;4992973;28;20046;-74
2022/10/05 12:34:58;;;;;;;3.00;1.77;;;21.20;97.60;;;;;;4993995;28;20045;-73
2022/10/05 12:37:52;;;;;;;2.30;1.70;;;21.20;97.90;;;;;;4992936;28;20056;-73
2022/10/05 12:40:50;;;;;;;2.00;1.50;;;21.40;97.30;;;;;;4993873;28;20030;-73
2022/10/05 12:43:30;;;;;;;4.72;2.13;;;21.50;96.00;;;;;;4992594;28;20038;-74
2022/10/05 12:45:59;;;;;;;4.90;2.17;;;21.30;96.90;;;;;;4991025;28;20053;-75
2022/10/05 12:48:48;;;;;;;2.40;1.42;;;21.40;96.90;;;;;;4993234;28;20065;-73
2022/10/05 12:51:41;;;;;;;3.73;1.90;;;21.60;97.70;;;;;;4996109;28;20042;-74
2022/10/05 12:54:22;;;;;;;4.78;2.03;;;21.60;97.00;;;;;;4989514;28;20054;-73
2022/10/05 12:57:05;;;;;;;2.67;1.48;;;21.60;96.10;;;;;;4991318;28;20429;-75
2022/10/05 13:00:05;;;;;;;5.72;2.50;;;21.50;97.50;;;;;;4993485;28;20464;-75
2022/10/05 13:02:57;;;;;;;3.38;1.58;;;21.40;96.70;;;;;;4993496;28;20041;-74
2022/10/05 13:05:39;;;;;;;5.28;2.22;;;21.50;97.80;;;;;;4993134;28;20054;-73
2022/10/05 13:08:13;;;;;;;5.00;2.70;;;21.70;97.30;;;;;;4992092;28;20040;-75
2022/10/05 13:10:53;;;;;;;2.80;1.85;;;21.70;95.80;;;;;;4993684;28;20149;-73
2022/10/05 13:13:36;;;;;;;3.63;1.90;;;21.60;96.00;;;;;;4992449;28;20030;-74
2022/10/05 13:16:13;;;;;;;5.85;2.28;;;21.60;96.40;;;;;;4985920;28;20379;-74
2022/10/05 13:19:14;;;;;;;5.38;1.92;;;21.60;96.60;;;;;;4993248;28;20141;-73
2022/10/05 13:22:03;;;;;;;4.57;2.15;;;21.60;96.60;;;;;;4993187;28;20038;-73
2022/10/05 13:24:37;;;;;;;3.53;1.27;;;21.80;96.20;;;;;;4982214;28;20057;-75
2022/10/05 13:27:10;;;;;;;3.08;1.95;;;21.90;96.40;;;;;;4989331;28;20038;-74
2022/10/05 13:29:58;;;;;;;3.00;1.60;;;22.00;95.30;;;;;;4993108;28;20447;-74
2022/10/05 13:32:50;;;;;;;2.55;1.67;;;22.00;95.70;;;;;;4993173;28;20034;-74
2022/10/05 13:35:23;;;;;;;3.45;2.00;;;22.00;95.30;;;;;;4991836;28;20046;-74
2022/10/05 13:37:56;;;;;;;4.43;1.73;;;22.00;95.50;;;;;;4991055;28;20490;-80
2022/10/05 13:40:40;;;;;;;2.85;1.50;;;22.10;95.20;;;;;;4993141;28;20034;-74
2022/10/05 13:43:25;;;;;;;3.15;1.70;;;22.30;95.30;;;;;;4990455;28;20038;-73
2022/10/05 13:46:00;;;;;;;3.38;1.60;;;22.60;95.90;;;;;;4990907;28;20045;-74
2022/10/05 13:49:04;;;;;;;1.98;1.35;;;22.80;94.60;;;;;;4992468;28;20061;-74
2022/10/05 13:51:42;;;;;;;3.13;1.60;;;22.80;93.90;;;;;;4992629;28;20038;-74
2022/10/05 13:54:44;;;;;;;2.50;1.33;;;23.00;93.70;;;;;;4991921;28;20314;-75
2022/10/05 13:57:31;;;;;;;2.42;1.38;;;23.10;92.60;;;;;;4990394;28;20037;-74
2022/10/05 14:00:04;;;;;;;2.17;1.38;;;23.00;93.30;;;;;;4992141;28;20053;-74
2022/10/05 14:02:41;;;;;;;2.65;1.30;;;23.10;92.80;;;;;;4999276;28;20039;-74
2022/10/05 14:05:25;;;;;;;4.07;1.30;;;23.10;92.10;;;;;;4991598;28;20057;-75
2022/10/05 14:07:52;;;;;;;3.95;1.67;;;23.10;92.50;;;;;;4991139;28;20380;-74
2022/10/05 14:10:33;;;;;;;2.47;1.30;;;22.90;92.80;;;;;;4992937;28;20039;-73
2022/10/05 14:13:01;;;;;;;2.33;1.70;;;22.90;93.30;;;;;;4991816;28;20053;-74